Time;durP1;ratioP1;P1;durP2;ratioP2;P2;SDS_P1;SDS_P2;PMS_P1;PMS_P2;Temp;Humidity;BMP_temperature;BMP_pressure;BME280_temperature;BME280_humidity;BME280_pressure;Samples;Min_cycle;Max_cycle;Signal;HPM_P1;HPM_P2
2022/07/03 00:00:29;;;;;;;5.93;1.90;;;;;;;;;;5031920;28;20033;-58
2022/07/03 00:02:55;;;;;;;3.03;2.00;;;;;;;;;;5026586;28;20045;-58
2022/07/03 00:05:21;;;;;;;3.38;2.22;;;;;;;;;;5031500;28;20033;-58
2022/07/03 00:07:47;;;;;;;2.28;2.00;;;;;;;;;;5028676;28;20469;-57
2022/07/03 00:10:13;;;;;;;4.70;1.77;;;;;;;;;;5029506;28;20026;-58
2022/07/03 00:12:39;;;;;;;4.40;2.20;;;;;;;;;;5032049;28;20472;-58
2022/07/03 00:15:05;;;;;;;3.40;2.22;;;;;;;;;;5028400;28;20036;-57
2022/07/03 00:17:31;;;;;;;2.38;1.95;;;;;;;;;;5026650;28;20055;-58
2022/07/03 00:19:57;;;;;;;4.22;2.35;;;;;;;;;;5029611;28;20034;-57
2022/07/03 00:22:24;;;;;;;2.50;2.30;;;;;;;;;;5030848;28;20053;-56
2022/07/03 00:24:52;;;;;;;5.22;2.40;;;;;;;;;;5030016;28;20029;-57
2022/07/03 00:27:19;;;;;;;6.93;2.58;;;;;;;;;;5014469;28;20051;-55
2022/07/03 00:29:45;;;;;;;3.95;2.13;;;;;;;;;;5014477;28;20040;-57
2022/07/03 00:32:12;;;;;;;3.45;2.38;;;;;;;;;;5011964;28;20026;-57
2022/07/03 00:34:39;;;;;;;2.70;2.03;;;;;;;;;;5009921;28;20029;-58
2022/07/03 00:37:07;;;;;;;3.35;2.17;;;;;;;;;;5011131;28;20089;-57
2022/07/03 00:39:35;;;;;;;2.92;2.13;;;;;;;;;;5013207;28;20041;-57
2022/07/03 00:42:02;;;;;;;3.45;1.95;;;;;;;;;;5011492;28;20029;-57
2022/07/03 00:44:30;;;;;;;5.78;2.38;;;;;;;;;;5011888;28;20026;-57
2022/07/03 00:46:56;;;;;;;2.67;1.70;;;;;;;;;;5010769;28;20022;-57
2022/07/03 00:49:25;;;;;;;2.95;2.42;;;;;;;;;;5010164;28;20398;-57
2022/07/03 00:51:52;;;;;;;3.50;2.40;;;;;;;;;;5010498;28;20041;-58
2022/07/03 00:54:20;;;;;;;2.83;2.38;;;;;;;;;;5010520;28;20540;-58
2022/07/03 00:56:50;;;;;;;5.38;2.40;;;;;;;;;;5015363;28;20034;-57
2022/07/03 00:59:16;;;;;;;4.40;2.53;;;;;;;;;;5010516;28;20030;-58
2022/07/03 01:01:42;;;;;;;3.67;2.60;;;;;;;;;;5010822;28;20089;-57
2022/07/03 01:04:31;;;;;;;6.32;2.10;;;;;;;;;;5008242;28;20044;-57
2022/07/03 01:07:07;;;;;;;3.22;2.22;;;;;;;;;;5009021;28;20041;-58
2022/07/03 01:09:49;;;;;;;3.33;1.95;;;;;;;;;;5009570;28;20030;-58
2022/07/03 01:12:33;;;;;;;2.90;2.22;;;;;;;;;;5008472;28;20041;-57
2022/07/03 01:15:06;;;;;;;4.32;2.22;;;;;;;;;;5005797;28;20034;-58
2022/07/03 01:17:38;;;;;;;3.50;2.40;;;;;;;;;;5010055;28;20034;-57
2022/07/03 01:20:06;;;;;;;3.77;2.40;;;;;;;;;;5010322;28;20026;-57
2022/07/03 01:22:34;;;;;;;2.60;2.17;;;;;;;;;;5011671;28;20030;-57
2022/07/03 01:25:17;;;;;;;4.47;2.70;;;;;;;;;;5012797;28;20397;-57
2022/07/03 01:27:48;;;;;;;4.18;2.80;;;;;;;;;;5027906;28;20128;-58
2022/07/03 01:30:14;;;;;;;4.43;2.55;;;;;;;;;;5030337;28;20036;-58
2022/07/03 01:32:44;;;;;;;6.68;2.40;;;;;;;;;;5029386;28;20552;-57
2022/07/03 01:35:19;;;;;;;2.72;2.17;;;;;;;;;;5029768;28;20026;-58
2022/07/03 01:37:45;;;;;;;5.70;2.40;;;;;;;;;;5030500;28;20049;-58
2022/07/03 01:40:12;;;;;;;3.72;2.35;;;;;;;;;;5028214;28;20100;-57
2022/07/03 01:42:40;;;;;;;4.25;3.03;;;;;;;;;;5028508;28;20104;-57
2022/07/03 01:45:08;;;;;;;4.43;2.95;;;;;;;;;;5030826;28;20030;-58
2022/07/03 01:47:35;;;;;;;4.63;2.70;;;;;;;;;;5021691;28;20037;-57
2022/07/03 01:50:01;;;;;;;3.15;2.42;;;;;;;;;;5029377;28;20092;-57
2022/07/03 01:52:31;;;;;;;3.10;2.45;;;;;;;;;;5027599;28;20028;-58
2022/07/03 01:55:01;;;;;;;8.48;2.42;;;;;;;;;;5029267;28;20021;-57
2022/07/03 01:57:37;;;;;;;4.20;2.70;;;;;;;;;;5029504;28;20029;-57
2022/07/03 02:00:03;;;;;;;4.38;2.78;;;;;;;;;;5025209;28;20036;-57
2022/07/03 02:02:33;;;;;;;3.63;2.45;;;;;;;;;;5028522;28;20034;-57
2022/07/03 02:05:00;;;;;;;4.65;2.88;;;;;;;;;;5028354;28;20034;-58
2022/07/03 02:07:26;;;;;;;3.72;3.17;;;;;;;;;;5030919;28;20028;-57
2022/07/03 02:10:01;;;;;;;4.55;2.35;;;;;;;;;;5028847;28;20234;-57
2022/07/03 02:12:33;;;;;;;4.95;2.65;;;;;;;;;;5027500;28;20033;-57
2022/07/03 02:15:04;;;;;;;4.10;2.65;;;;;;;;;;5022777;28;20428;-57
2022/07/03 02:17:34;;;;;;;6.07;2.70;;;;;;;;;;5030456;28;20083;-57
2022/07/03 02:20:02;;;;;;;4.53;2.67;;;;;;;;;;5029586;28;20064;-58
2022/07/03 02:22:31;;;;;;;4.82;3.03;;;;;;;;;;5029104;28;20017;-57
2022/07/03 02:25:02;;;;;;;4.35;2.72;;;;;;;;;;5029853;28;20025;-58
2022/07/03 02:27:29;;;;;;;3.92;3.03;;;;;;;;;;5025630;28;20894;-56
2022/07/03 02:30:05;;;;;;;3.85;3.05;;;;;;;;;;5027601;28;20487;-57
2022/07/03 02:32:33;;;;;;;4.47;2.92;;;;;;;;;;5028171;28;20034;-57
2022/07/03 02:35:02;;;;;;;4.30;2.95;;;;;;;;;;5029867;28;20022;-58
2022/07/03 02:37:30;;;;;;;3.60;2.45;;;;;;;;;;5026648;28;20025;-56
2022/07/03 02:40:07;;;;;;;4.25;2.90;;;;;;;;;;5026579;28;20919;-57
2022/07/03 02:42:38;;;;;;;4.47;3.05;;;;;;;;;;5026249;28;20033;-58
2022/07/03 02:45:08;;;;;;;4.60;3.17;;;;;;;;;;5028193;28;20519;-57
2022/07/03 02:47:37;;;;;;;6.90;2.85;;;;;;;;;;5031134;28;20026;-58
2022/07/03 02:50:03;;;;;;;4.40;3.05;;;;;;;;;;5028946;28;20112;-57
2022/07/03 02:52:40;;;;;;;4.22;2.75;;;;;;;;;;5029077;28;20025;-57
2022/07/03 02:55:15;;;;;;;3.42;3.05;;;;;;;;;;5010518;28;20028;-56
2022/07/03 02:57:42;;;;;;;6.32;3.10;;;;;;;;;;5027224;28;20112;-56
2022/07/03 03:00:09;;;;;;;5.25;3.33;;;;;;;;;;5029291;28;20029;-57
2022/07/03 03:02:55;;;;;;;5.32;3.10;;;;;;;;;;5029214;28;20030;-57
2022/07/03 03:05:39;;;;;;;4.15;3.05;;;;;;;;;;5028547;28;20469;-57
2022/07/03 03:08:12;;;;;;;3.85;2.97;;;;;;;;;;5024925;28;20037;-57
2022/07/03 03:10:38;;;;;;;5.87;3.03;;;;;;;;;;5029221;28;20029;-57
2022/07/03 03:13:09;;;;;;;6.75;3.08;;;;;;;;;;5028017;28;20044;-58
2022/07/03 03:15:36;;;;;;;3.83;2.90;;;;;;;;;;5033248;28;20029;-57
2022/07/03 03:18:04;;;;;;;3.78;3.03;;;;;;;;;;5031436;28;20041;-57
2022/07/03 03:20:33;;;;;;;3.22;2.90;;;;;;;;;;5027875;28;20523;-57
2022/07/03 03:23:03;;;;;;;4.60;3.05;;;;;;;;;;5032513;28;20029;-57
2022/07/03 03:25:29;;;;;;;4.25;3.10;;;;;;;;;;5033220;28;20022;-55
2022/07/03 03:27:55;;;;;;;4.60;3.25;;;;;;;;;;5031516;28;20117;-57
2022/07/03 03:30:21;;;;;;;4.68;2.97;;;;;;;;;;5033299;28;20036;-58
2022/07/03 03:32:47;;;;;;;5.22;3.33;;;;;;;;;;5031387;28;20021;-56
2022/07/03 03:35:13;;;;;;;5.00;3.08;;;;;;;;;;5033374;28;20492;-58
2022/07/03 03:37:39;;;;;;;5.75;3.08;;;;;;;;;;5031348;28;20723;-57
2022/07/03 03:40:06;;;;;;;4.85;3.40;;;;;;;;;;5029861;28;20033;-58
2022/07/03 03:42:32;;;;;;;5.82;3.53;;;;;;;;;;5032793;28;20036;-56
2022/07/03 03:44:57;;;;;;;5.10;3.50;;;;;;;;;;5031522;28;20532;-57
2022/07/03 03:47:24;;;;;;;6.68;3.13;;;;;;;;;;5032204;28;20028;-57
2022/07/03 03:49:50;;;;;;;3.78;3.15;;;;;;;;;;5029723;28;20453;-57
2022/07/03 03:52:17;;;;;;;3.97;2.97;;;;;;;;;;5037073;28;20025;-57
2022/07/03 03:54:42;;;;;;;4.00;2.92;;;;;;;;;;5032760;28;20026;-57
2022/07/03 03:57:16;;;;;;;3.80;3.40;;;;;;;;;;5031988;28;20479;-58
2022/07/03 03:59:42;;;;;;;;;;;;;;;;;;5029741;28;20029;-57
2022/07/03 04:02:08;;;;;;;5.05;3.53;;;;;;;;;;5031071;28;19992;-57
2022/07/03 04:04:34;;;;;;;5.97;3.80;;;;;;;;;;5033249;28;20037;-57
2022/07/03 04:07:00;;;;;;;5.35;3.45;;;;;;;;;;5032802;28;20052;-57
2022/07/03 04:09:26;;;;;;;6.07;3.08;;;;;;;;;;5030460;28;20068;-57
2022/07/03 04:11:52;;;;;;;5.38;3.65;;;;;;;;;;5031340;28;20096;-58
2022/07/03 04:14:18;;;;;;;6.47;3.88;;;;;;;;;;5027735;28;20033;-58
2022/07/03 04:16:43;;;;;;;4.10;3.20;;;;;;;;;;5030068;28;20037;-57
2022/07/03 04:19:10;;;;;;;3.58;3.10;;;;;;;;;;5032293;28;20489;-57
2022/07/03 04:21:35;;;;;;;7.32;3.58;;;;;;;;;;5030107;28;20028;-58
2022/07/03 04:24:01;;;;;;;5.03;3.50;;;;;;;;;;5029605;28;20025;-56
2022/07/03 04:26:27;;;;;;;6.70;3.78;;;;;;;;;;5029810;28;20060;-58
2022/07/03 04:28:53;;;;;;;5.40;3.28;;;;;;;;;;5026739;28;20108;-56
2022/07/03 04:31:19;;;;;;;6.18;3.65;;;;;;;;;;5030321;28;20457;-58
2022/07/03 04:33:45;;;;;;;5.28;3.90;;;;;;;;;;5030181;28;20033;-57
2022/07/03 04:36:11;;;;;;;4.40;3.22;;;;;;;;;;5030604;28;20033;-57
2022/07/03 04:38:37;;;;;;;6.85;3.78;;;;;;;;;;5028061;28;20040;-58
2022/07/03 04:41:03;;;;;;;5.43;3.30;;;;;;;;;;5012513;28;20037;-56
2022/07/03 04:43:29;;;;;;;4.10;3.20;;;;;;;;;;5031015;28;20424;-58
2022/07/03 04:45:55;;;;;;;5.53;3.30;;;;;;;;;;5025911;28;20054;-57
2022/07/03 04:48:21;;;;;;;3.90;3.25;;;;;;;;;;5022059;28;20033;-57
2022/07/03 04:50:47;;;;;;;7.45;3.42;;;;;;;;;;5021213;28;20472;-58
2022/07/03 04:53:13;;;;;;;5.72;3.25;;;;;;;;;;5030597;28;20083;-57
2022/07/03 04:55:39;;;;;;;5.82;3.33;;;;;;;;;;5029316;28;20029;-58
2022/07/03 04:58:05;;;;;;;6.20;3.28;;;;;;;;;;5026300;28;20033;-57
2022/07/03 05:00:31;;;;;;;4.93;3.03;;;;;;;;;;5032179;28;20217;-58
2022/07/03 05:02:57;;;;;;;4.68;2.92;;;;;;;;;;5028622;28;20385;-57
2022/07/03 05:05:23;;;;;;;4.78;3.42;;;;;;;;;;5039137;28;20597;-57
2022/07/03 05:07:49;;;;;;;4.72;3.22;;;;;;;;;;5028687;28;20044;-56
2022/07/03 05:10:15;;;;;;;4.75;3.05;;;;;;;;;;5029392;28;20036;-57
2022/07/03 05:12:41;;;;;;;4.57;3.33;;;;;;;;;;5029908;28;20022;-58
2022/07/03 05:15:08;;;;;;;5.63;3.10;;;;;;;;;;5029493;28;20612;-56
2022/07/03 05:17:34;;;;;;;5.88;3.60;;;;;;;;;;5027045;28;20535;-58
2022/07/03 05:22:44;;;;;;;6.03;3.10;;;;;;;;;;5029332;28;20287;-57
2022/07/03 05:25:10;;;;;;;4.57;2.88;;;;;;;;;;5030564;28;20109;-58
2022/07/03 05:27:37;;;;;;;4.50;3.05;;;;;;;;;;4994498;28;973414;-57
2022/07/03 05:30:03;;;;;;;4.50;3.40;;;;;;;;;;5029393;28;20408;-58
2022/07/03 05:32:29;;;;;;;6.32;3.60;;;;;;;;;;5027641;28;20040;-58
2022/07/03 05:34:55;;;;;;;5.07;3.10;;;;;;;;;;5029450;28;20029;-58
2022/07/03 05:37:21;;;;;;;3.50;2.92;;;;;;;;;;5031542;28;20025;-58
2022/07/03 05:39:47;;;;;;;5.20;2.83;;;;;;;;;;5025723;28;20108;-57
2022/07/03 05:42:13;;;;;;;5.97;3.15;;;;;;;;;;5031514;28;20032;-57
2022/07/03 05:44:39;;;;;;;4.07;2.95;;;;;;;;;;5029846;28;20030;-56
2022/07/03 05:47:05;;;;;;;4.43;2.80;;;;;;;;;;5024787;28;20066;-57
2022/07/03 05:49:31;;;;;;;3.63;2.63;;;;;;;;;;5029476;28;20425;-57
2022/07/03 05:51:57;;;;;;;5.38;2.80;;;;;;;;;;5030108;28;20026;-59
2022/07/03 05:54:23;;;;;;;3.53;2.75;;;;;;;;;;5029734;28;20049;-57
2022/07/03 05:56:49;;;;;;;3.45;2.58;;;;;;;;;;5030962;28;20037;-57
2022/07/03 05:59:15;;;;;;;3.92;2.95;;;;;;;;;;5028673;28;20037;-57
2022/07/03 06:01:41;;;;;;;3.90;2.60;;;;;;;;;;5028245;28;20033;-58
2022/07/03 06:04:07;;;;;;;7.10;2.67;;;;;;;;;;5026521;28;20404;-58
2022/07/03 06:06:33;;;;;;;5.45;2.65;;;;;;;;;;5028674;28;20093;-57
2022/07/03 06:08:59;;;;;;;4.85;2.42;;;;;;;;;;5028329;28;20025;-57
2022/07/03 06:11:24;;;;;;;2.63;2.35;;;;;;;;;;5029415;28;20041;-57
2022/07/03 06:13:50;;;;;;;2.72;2.40;;;;;;;;;;5033267;28;20021;-56
2022/07/03 06:16:16;;;;;;;5.45;2.60;;;;;;;;;;5028663;28;20044;-58
2022/07/03 06:18:43;;;;;;;3.85;2.50;;;;;;;;;;5026994;28;20037;-57
2022/07/03 06:21:09;;;;;;;2.25;2.05;;;;;;;;;;5027496;28;20737;-57
2022/07/03 06:23:35;;;;;;;3.05;2.30;;;;;;;;;;5029072;28;20033;-57
2022/07/03 06:26:01;;;;;;;3.95;2.10;;;;;;;;;;5027703;28;20056;-58
2022/07/03 06:28:27;;;;;;;3.55;2.03;;;;;;;;;;5011427;28;20052;-58
2022/07/03 06:30:53;;;;;;;5.10;2.78;;;;;;;;;;5028660;28;20034;-58
2022/07/03 06:33:19;;;;;;;4.30;2.28;;;;;;;;;;5028193;28;20377;-57
2022/07/03 06:35:45;;;;;;;2.90;1.80;;;;;;;;;;5027872;28;20052;-57
2022/07/03 06:38:11;;;;;;;2.78;1.98;;;;;;;;;;5029765;28;20040;-58
2022/07/03 06:40:37;;;;;;;4.53;2.05;;;;;;;;;;5028149;28;20473;-57
2022/07/03 06:43:03;;;;;;;2.40;2.00;;;;;;;;;;5027060;28;20068;-57
2022/07/03 06:45:29;;;;;;;5.00;2.25;;;;;;;;;;5027946;28;20037;-57
2022/07/03 06:47:55;;;;;;;3.30;1.92;;;;;;;;;;5026522;28;20063;-57
2022/07/03 06:50:21;;;;;;;2.65;2.13;;;;;;;;;;5024093;28;20048;-56
2022/07/03 06:52:47;;;;;;;2.72;2.30;;;;;;;;;;5023942;28;20398;-58
2022/07/03 06:55:13;;;;;;;3.10;1.95;;;;;;;;;;5027841;28;20424;-57
2022/07/03 06:57:39;;;;;;;4.22;1.80;;;;;;;;;;5027164;28;20392;-58
2022/07/03 07:00:06;;;;;;;3.00;1.80;;;;;;;;;;5022464;28;20117;-57
2022/07/03 07:02:32;;;;;;;3.45;2.22;;;;;;;;;;5022297;28;20385;-56
2022/07/03 07:04:57;;;;;;;3.83;1.83;;;;;;;;;;5028403;28;20022;-57
2022/07/03 07:07:23;;;;;;;2.50;1.67;;;;;;;;;;5026937;28;20465;-57
2022/07/03 07:09:49;;;;;;;2.78;2.00;;;;;;;;;;5030297;28;20063;-57
2022/07/03 07:12:15;;;;;;;4.05;1.70;;;;;;;;;;5028634;28;20044;-59
2022/07/03 07:14:41;;;;;;;3.05;1.88;;;;;;;;;;5028793;28;20037;-56
2022/07/03 07:17:08;;;;;;;2.83;1.80;;;;;;;;;;5028998;28;20037;-56
2022/07/03 07:19:34;;;;;;;4.45;1.95;;;;;;;;;;5029061;28;20026;-57
2022/07/03 07:22:01;;;;;;;2.17;1.55;;;;;;;;;;5029370;28;20049;-57
2022/07/03 07:24:27;;;;;;;3.08;2.10;;;;;;;;;;5029076;28;20043;-57
2022/07/03 07:26:53;;;;;;;3.72;2.25;;;;;;;;;;5028154;28;20063;-57
2022/07/03 07:29:19;;;;;;;3.28;2.05;;;;;;;;;;5031083;28;20037;-57
2022/07/03 07:31:45;;;;;;;2.13;1.63;;;;;;;;;;5029837;28;20030;-57
2022/07/03 07:34:11;;;;;;;2.40;1.88;;;;;;;;;;5027228;28;20040;-57
2022/07/03 07:36:37;;;;;;;5.15;2.17;;;;;;;;;;5028358;28;20104;-58
2022/07/03 07:39:03;;;;;;;2.38;1.33;;;;;;;;;;5028695;28;20075;-58
2022/07/03 07:41:29;;;;;;;2.75;1.65;;;;;;;;;;5028732;28;20036;-57
2022/07/03 07:43:55;;;;;;;5.70;1.80;;;;;;;;;;5027106;28;20044;-57
2022/07/03 07:46:21;;;;;;;3.45;2.15;;;;;;;;;;5028162;28;20026;-57
2022/07/03 07:48:47;;;;;;;6.57;2.05;;;;;;;;;;5026140;28;20033;-57
2022/07/03 07:51:13;;;;;;;2.10;1.70;;;;;;;;;;5029610;28;20037;-57
2022/07/03 07:53:39;;;;;;;3.78;1.80;;;;;;;;;;5029422;28;20044;-58
2022/07/03 07:56:05;;;;;;;2.88;1.90;;;;;;;;;;5031152;28;20105;-57
2022/07/03 07:58:31;;;;;;;2.83;1.90;;;;;;;;;;5030239;28;20036;-58
2022/07/03 08:06:28;;;;;;;2.60;1.50;;;;;;;;;;5024480;28;20645;-57
2022/07/03 08:08:54;;;;;;;3.13;1.75;;;;;;;;;;5031869;28;20037;-57
2022/07/03 08:11:20;;;;;;;2.17;1.45;;;;;;;;;;5028799;28;20029;-58
2022/07/03 08:13:46;;;;;;;2.28;1.40;;;;;;;;;;5030649;28;20037;-57
2022/07/03 08:16:13;;;;;;;2.95;1.80;;;;;;;;;;5031316;28;20041;-58
2022/07/03 08:18:39;;;;;;;2.10;1.50;;;;;;;;;;5030960;28;20037;-57
2022/07/03 08:21:05;;;;;;;2.90;1.73;;;;;;;;;;5028281;28;20305;-57
2022/07/03 08:23:31;;;;;;;2.22;1.33;;;;;;;;;;5028891;28;20037;-57
2022/07/03 08:25:57;;;;;;;2.75;1.60;;;;;;;;;;5027573;28;20050;-57
2022/07/03 08:28:23;;;;;;;2.45;1.65;;;;;;;;;;5020183;28;20040;-59
2022/07/03 08:30:49;;;;;;;1.88;1.42;;;;;;;;;;5026238;28;20036;-57
2022/07/03 08:33:15;;;;;;;1.70;1.42;;;;;;;;;;5019526;28;20473;-57
2022/07/03 08:35:41;;;;;;;3.05;1.23;;;;;;;;;;5029518;28;20025;-58
2022/07/03 08:38:07;;;;;;;1.70;1.20;;;;;;;;;;5019551;28;20044;-57
2022/07/03 08:40:33;;;;;;;1.92;1.30;;;;;;;;;;5026603;28;20909;-58
2022/07/03 08:43:03;;;;;;;1.33;1.05;;;;;;;;;;5028226;28;20056;-57
2022/07/03 08:45:30;;;;;;;1.63;1.48;;;;;;;;;;5026734;28;20033;-58
2022/07/03 08:47:57;;;;;;;7.45;1.83;;;;;;;;;;5029833;28;20180;-58
2022/07/03 08:50:23;;;;;;;1.52;1.27;;;;;;;;;;5024821;28;20021;-56
2022/07/03 08:52:49;;;;;;;5.75;1.50;;;;;;;;;;5019988;28;20033;-58
2022/07/03 08:55:16;;;;;;;1.95;1.45;;;;;;;;;;5026983;28;20416;-58
2022/07/03 08:57:43;;;;;;;1.83;1.33;;;;;;;;;;5027714;28;20044;-57
2022/07/03 09:00:11;;;;;;;7.68;1.23;;;;;;;;;;5028993;28;20053;-57
2022/07/03 09:02:39;;;;;;;4.88;1.50;;;;;;;;;;5029202;28;20477;-57
2022/07/03 09:05:06;;;;;;;3.65;1.30;;;;;;;;;;5031536;28;20028;-57
2022/07/03 09:07:35;;;;;;;1.50;1.35;;;;;;;;;;5030350;28;20021;-58
2022/07/03 09:10:01;;;;;;;1.60;1.40;;;;;;;;;;5031528;28;20484;-57
2022/07/03 09:12:30;;;;;;;2.40;1.55;;;;;;;;;;5033215;28;20034;-57
2022/07/03 09:14:56;;;;;;;1.48;1.20;;;;;;;;;;5031118;28;20033;-57
2022/07/03 09:17:22;;;;;;;2.30;1.50;;;;;;;;;;5029948;28;20045;-57
2022/07/03 09:19:49;;;;;;;1.55;1.20;;;;;;;;;;5030168;28;20030;-57
2022/07/03 09:22:22;;;;;;;3.22;1.25;;;;;;;;;;5026601;28;20029;-58
2022/07/03 09:24:49;;;;;;;1.80;1.25;;;;;;;;;;5031147;28;20485;-57
2022/07/03 09:27:19;;;;;;;3.50;1.10;;;;;;;;;;5031263;28;20111;-57
2022/07/03 09:29:52;;;;;;;1.80;1.27;;;;;;;;;;5030354;28;20544;-58
2022/07/03 09:32:18;;;;;;;5.43;1.40;;;;;;;;;;5030674;28;20087;-58
2022/07/03 09:34:44;;;;;;;2.38;1.52;;;;;;;;;;5029638;28;20493;-58
2022/07/03 09:37:11;;;;;;;2.25;1.40;;;;;;;;;;5029293;28;20037;-57
2022/07/03 09:39:38;;;;;;;4.18;1.23;;;;;;;;;;5031201;28;20395;-57
2022/07/03 09:42:05;;;;;;;2.30;1.15;;;;;;;;;;5028639;28;20033;-57
2022/07/03 09:44:40;;;;;;;3.38;1.10;;;;;;;;;;5030737;28;20064;-58
2022/07/03 09:47:06;;;;;;;10.25;1.33;;;;;;;;;;5031160;28;20395;-58
2022/07/03 09:49:46;;;;;;;2.25;1.40;;;;;;;;;;5024339;28;20031;-57
2022/07/03 09:52:29;;;;;;;2.95;1.40;;;;;;;;;;5006335;28;20050;-57
2022/07/03 09:54:56;;;;;;;3.38;1.40;;;;;;;;;;5026380;28;20717;-58
2022/07/03 09:57:22;;;;;;;2.40;1.30;;;;;;;;;;5026531;28;20040;-58
2022/07/03 09:59:49;;;;;;;2.22;1.23;;;;;;;;;;5030090;28;20041;-58
2022/07/03 10:02:15;;;;;;;1.95;1.23;;;;;;;;;;5024952;28;20025;-58
2022/07/03 10:04:41;;;;;;;3.00;0.95;;;;;;;;;;5031378;28;20021;-58
2022/07/03 10:07:06;;;;;;;3.60;1.23;;;;;;;;;;5028831;28;20037;-58
2022/07/03 10:09:35;;;;;;;4.00;1.40;;;;;;;;;;5028862;28;20035;-58
2022/07/03 10:12:02;;;;;;;2.05;1.20;;;;;;;;;;5026044;28;20037;-58
2022/07/03 10:14:30;;;;;;;1.63;1.20;;;;;;;;;;5024488;28;20056;-58
2022/07/03 10:16:58;;;;;;;4.15;1.38;;;;;;;;;;5029727;28;20048;-58
2022/07/03 10:19:26;;;;;;;2.78;1.13;;;;;;;;;;5029565;28;20380;-57
2022/07/03 10:21:55;;;;;;;2.85;1.08;;;;;;;;;;5028339;28;20040;-58
2022/07/03 10:24:25;;;;;;;9.63;1.25;;;;;;;;;;5030744;28;20021;-57
2022/07/03 10:26:51;;;;;;;1.67;1.10;;;;;;;;;;5014647;28;20124;-57
2022/07/03 10:29:17;;;;;;;2.40;1.20;;;;;;;;;;5010097;28;20036;-57
2022/07/03 10:31:46;;;;;;;2.70;1.02;;;;;;;;;;5008128;28;20405;-57
2022/07/03 10:34:13;;;;;;;1.73;1.33;;;;;;;;;;5015935;28;20397;-58
2022/07/03 10:36:39;;;;;;;1.58;1.10;;;;;;;;;;5005626;28;20042;-58
2022/07/03 10:39:07;;;;;;;2.00;1.33;;;;;;;;;;5012215;28;20092;-57
2022/07/03 10:47:28;;;;;;;4.10;1.00;;;;;;;;;;5009936;28;20060;-58
2022/07/03 10:50:07;;;;;;;2.55;0.98;;;;;;;;;;5006256;28;20678;-58
2022/07/03 10:52:33;;;;;;;1.60;1.05;;;;;;;;;;5006767;28;20108;-58
2022/07/03 10:55:01;;;;;;;2.03;1.15;;;;;;;;;;5007104;28;20064;-57
2022/07/03 10:57:27;;;;;;;1.85;1.20;;;;;;;;;;5007560;28;20107;-57
2022/07/03 10:59:53;;;;;;;1.42;1.10;;;;;;;;;;5004543;28;20480;-58
2022/07/03 11:02:22;;;;;;;1.88;0.90;;;;;;;;;;5003553;28;20022;-58
2022/07/03 11:05:01;;;;;;;1.02;0.82;;;;;;;;;;5005529;28;20500;-58
2022/07/03 11:07:27;;;;;;;3.08;0.80;;;;;;;;;;5008089;28;20018;-57
2022/07/03 11:10:14;;;;;;;1.73;1.17;;;;;;;;;;5003700;28;20033;-58
2022/07/03 11:12:58;;;;;;;1.60;0.85;;;;;;;;;;5010331;28;20504;-58
2022/07/03 11:15:33;;;;;;;1.73;1.02;;;;;;;;;;5009443;28;20036;-57
2022/07/03 11:18:11;;;;;;;1.98;1.10;;;;;;;;;;5010403;28;20060;-56
2022/07/03 11:20:40;;;;;;;2.03;0.80;;;;;;;;;;5011592;28;20405;-58
2022/07/03 11:23:09;;;;;;;1.80;0.75;;;;;;;;;;5009917;28;20117;-58
2022/07/03 11:25:39;;;;;;;2.38;0.90;;;;;;;;;;5011894;28;20045;-58
2022/07/03 11:28:05;;;;;;;1.35;1.00;;;;;;;;;;5029422;28;20055;-58
2022/07/03 11:30:34;;;;;;;1.83;1.20;;;;;;;;;;5029863;28;20189;-58
2022/07/03 11:33:00;;;;;;;1.55;0.70;;;;;;;;;;5028645;28;20033;-58
2022/07/03 11:35:46;;;;;;;1.15;1.05;;;;;;;;;;5035050;28;20496;-58
2022/07/03 11:38:12;;;;;;;2.60;1.05;;;;;;;;;;5033432;28;20025;-58
2022/07/03 11:40:41;;;;;;;2.65;1.00;;;;;;;;;;5030523;28;20059;-58
2022/07/03 11:43:07;;;;;;;1.88;1.05;;;;;;;;;;5033526;28;20064;-58
2022/07/03 11:45:33;;;;;;;1.40;1.05;;;;;;;;;;5030174;28;20053;-58
2022/07/03 11:47:59;;;;;;;0.80;0.75;;;;;;;;;;5031676;28;20033;-58
2022/07/03 11:50:38;;;;;;;1.27;0.82;;;;;;;;;;5030167;28;20051;-57
2022/07/03 11:53:27;;;;;;;1.00;0.70;;;;;;;;;;5022568;28;20036;-57
2022/07/03 11:55:54;;;;;;;2.08;1.00;;;;;;;;;;5030884;28;20105;-57
2022/07/03 11:58:21;;;;;;;1.10;0.93;;;;;;;;;;5025500;28;20038;-58
2022/07/03 12:00:47;;;;;;;1.38;0.82;;;;;;;;;;5030679;28;20376;-57
2022/07/03 12:03:21;;;;;;;0.90;0.70;;;;;;;;;;5031255;28;20448;-58
2022/07/03 12:06:05;;;;;;;2.75;0.93;;;;;;;;;;5031013;28;20029;-57
2022/07/03 12:08:32;;;;;;;1.42;1.05;;;;;;;;;;5034592;28;20029;-57
2022/07/03 12:11:02;;;;;;;1.20;0.70;;;;;;;;;;5030030;28;20033;-56
2022/07/03 12:13:30;;;;;;;0.90;0.73;;;;;;;;;;5032208;28;20041;-58
2022/07/03 12:16:01;;;;;;;2.38;1.10;;;;;;;;;;5031390;28;20511;-58
2022/07/03 12:18:27;;;;;;;1.92;0.63;;;;;;;;;;5029626;28;20041;-58
2022/07/03 12:20:53;;;;;;;6.18;0.82;;;;;;;;;;5012504;28;20029;-57
2022/07/03 12:23:19;;;;;;;1.27;0.88;;;;;;;;;;5030549;28;20090;-58
2022/07/03 12:25:45;;;;;;;3.53;1.00;;;;;;;;;;5030416;28;20124;-59
2022/07/03 12:28:11;;;;;;;1.23;0.82;;;;;;;;;;5018444;28;20030;-57
2022/07/03 12:30:38;;;;;;;1.20;0.77;;;;;;;;;;5024161;28;20385;-58
2022/07/03 12:33:04;;;;;;;1.45;0.88;;;;;;;;;;5028786;28;20030;-57
2022/07/03 12:35:30;;;;;;;1.70;0.85;;;;;;;;;;5032221;28;20037;-58
2022/07/03 12:37:57;;;;;;;1.48;0.93;;;;;;;;;;5031907;28;20485;-58
2022/07/03 12:40:23;;;;;;;2.67;0.70;;;;;;;;;;5027663;28;20474;-57
2022/07/03 12:42:51;;;;;;;1.75;0.70;;;;;;;;;;5030776;28;20021;-57
2022/07/03 12:45:18;;;;;;;2.15;0.60;;;;;;;;;;5026934;28;20041;-57
2022/07/03 12:47:45;;;;;;;1.95;0.98;;;;;;;;;;5032592;28;20032;-59
2022/07/03 12:50:11;;;;;;;1.13;0.80;;;;;;;;;;5031999;28;20614;-58
2022/07/03 12:52:50;;;;;;;3.35;0.75;;;;;;;;;;5028597;28;20567;-58
2022/07/03 12:55:23;;;;;;;0.98;0.70;;;;;;;;;;5027159;28;20033;-58
2022/07/03 13:00:43;;;;;;;1.85;0.80;;;;;;;;;;5035320;28;20463;-58
2022/07/03 13:03:09;;;;;;;0.93;0.68;;;;;;;;;;5039551;28;20404;-57
2022/07/03 13:05:42;;;;;;;1.38;0.65;;;;;;;;;;5031365;28;20044;-57
2022/07/03 13:08:08;;;;;;;2.22;0.82;;;;;;;;;;5042472;28;20033;-57
2022/07/03 13:10:35;;;;;;;6.43;0.90;;;;;;;;;;5030088;28;20021;-58
2022/07/03 13:13:01;;;;;;;9.35;0.82;;;;;;;;;;5010909;28;20033;-57
2022/07/03 13:15:28;;;;;;;2.63;0.60;;;;;;;;;;5028892;28;20156;-57
2022/07/03 13:17:53;;;;;;;1.40;0.60;;;;;;;;;;5027589;28;20435;-55
2022/07/03 13:20:30;;;;;;;2.88;0.80;;;;;;;;;;5032438;28;20032;-56
2022/07/03 13:23:00;;;;;;;2.03;0.80;;;;;;;;;;5028498;28;20099;-55
2022/07/03 13:25:26;;;;;;;3.50;0.70;;;;;;;;;;5033898;28;20065;-55
2022/07/03 13:27:52;;;;;;;1.23;0.70;;;;;;;;;;5030753;28;20088;-57
2022/07/03 13:30:20;;;;;;;0.82;0.68;;;;;;;;;;5021246;28;20033;-57
2022/07/03 13:32:46;;;;;;;2.15;0.85;;;;;;;;;;5027142;28;20047;-58
2022/07/03 13:35:12;;;;;;;1.67;0.50;;;;;;;;;;5031305;28;20049;-58
2022/07/03 13:37:38;;;;;;;2.83;0.60;;;;;;;;;;5039119;28;20017;-58
2022/07/03 13:40:05;;;;;;;1.35;0.60;;;;;;;;;;5034557;28;20108;-59
2022/07/03 13:42:31;;;;;;;1.30;0.57;;;;;;;;;;5032023;28;20456;-55
2022/07/03 13:44:57;;;;;;;1.05;0.50;;;;;;;;;;5031967;28;20369;-57
2022/07/03 13:47:23;;;;;;;1.13;0.50;;;;;;;;;;5026583;28;20044;-56
2022/07/03 13:49:49;;;;;;;3.13;0.57;;;;;;;;;;5028269;28;20063;-55
2022/07/03 13:52:15;;;;;;;0.70;0.50;;;;;;;;;;5025980;28;20484;-55
2022/07/03 13:54:41;;;;;;;0.50;0.40;;;;;;;;;;5027868;28;20432;-55
2022/07/03 13:57:07;;;;;;;0.68;0.50;;;;;;;;;;5027963;28;20083;-56
2022/07/03 13:59:33;;;;;;;2.20;0.40;;;;;;;;;;5011952;28;20036;-55
2022/07/03 14:01:59;;;;;;;0.75;0.40;;;;;;;;;;5030573;28;20032;-56
2022/07/03 14:04:25;;;;;;;0.52;0.30;;;;;;;;;;5030266;28;20041;-55
2022/07/03 14:06:52;;;;;;;2.83;0.73;;;;;;;;;;5030359;28;20033;-55
2022/07/03 14:09:18;;;;;;;1.00;0.50;;;;;;;;;;5012470;28;20061;-55
2022/07/03 14:11:44;;;;;;;0.65;0.40;;;;;;;;;;5030153;28;20053;-58
2022/07/03 14:14:10;;;;;;;0.52;0.40;;;;;;;;;;5040692;28;20029;-55
2022/07/03 14:16:36;;;;;;;1.80;0.40;;;;;;;;;;5037858;28;20477;-57
2022/07/03 14:19:05;;;;;;;0.52;0.30;;;;;;;;;;5031868;28;21613;-58
2022/07/03 14:21:32;;;;;;;2.72;0.57;;;;;;;;;;5029407;28;20550;-56
2022/07/03 14:23:57;;;;;;;1.05;0.35;;;;;;;;;;5028810;28;20097;-57
2022/07/03 14:34:39;;;;;;;1.27;0.30;;;;;;;;;;5022927;28;20039;-56
2022/07/03 14:37:05;;;;;;;0.52;0.40;;;;;;;;;;5024104;28;20056;-56
2022/07/03 14:39:31;;;;;;;0.90;0.47;;;;;;;;;;5030118;28;20032;-56
2022/07/03 14:41:57;;;;;;;0.40;0.30;;;;;;;;;;5038941;28;20132;-55
2022/07/03 14:44:25;;;;;;;1.95;0.40;;;;;;;;;;5026316;28;20568;-56
2022/07/03 14:46:51;;;;;;;1.13;0.50;;;;;;;;;;5033440;28;20224;-57
2022/07/03 14:49:17;;;;;;;7.30;0.55;;;;;;;;;;5025876;28;20054;-57
2022/07/03 14:51:43;;;;;;;0.70;0.40;;;;;;;;;;5034199;28;20034;-57
2022/07/03 14:54:10;;;;;;;0.95;0.40;;;;;;;;;;5029205;28;20033;-57
2022/07/03 14:56:40;;;;;;;0.40;0.30;;;;;;;;;;5028727;28;20092;-56
2022/07/03 14:59:08;;;;;;;1.10;0.30;;;;;;;;;;5036054;28;20548;-57
2022/07/03 15:01:35;;;;;;;0.73;0.50;;;;;;;;;;5034510;28;20029;-57
2022/07/03 15:04:02;;;;;;;0.65;0.50;;;;;;;;;;5033875;28;20109;-56
2022/07/03 15:06:31;;;;;;;1.50;0.60;;;;;;;;;;5033125;28;20053;-57
2022/07/03 15:08:59;;;;;;;0.93;0.43;;;;;;;;;;5031057;28;20104;-57
2022/07/03 15:14:14;;;;;;;5.25;0.65;;;;;;;;;;5033671;28;20052;-56